createdAt,value
2018-04-15T00:00:24.400Z,7.80
2018-04-15T00:02:50.132Z,7.80
2018-04-15T00:05:15.868Z,7.84
2018-04-15T00:07:41.599Z,7.85
2018-04-15T00:10:07.384Z,7.85
2018-04-15T00:12:33.121Z,7.87
2018-04-15T00:14:58.852Z,7.87
2018-04-15T00:17:24.579Z,7.89
2018-04-15T00:19:50.313Z,7.92
2018-04-15T00:22:16.048Z,7.93
2018-04-15T00:24:41.780Z,7.92
2018-04-15T00:27:07.518Z,7.93
2018-04-15T00:29:33.299Z,7.94
2018-04-15T00:31:59.048Z,7.98
2018-04-15T00:34:24.771Z,7.97
2018-04-15T00:36:50.513Z,7.98
2018-04-15T00:39:16.259Z,7.97
2018-04-15T00:41:42.010Z,7.97
2018-04-15T00:44:07.748Z,7.98
2018-04-15T00:46:33.493Z,7.99
2018-04-15T00:48:59.228Z,8.01
2018-04-15T00:51:24.975Z,7.99
2018-04-15T00:54:03.229Z,8.02
2018-04-15T00:56:28.972Z,8.04
2018-04-15T00:58:54.705Z,8.03
2018-04-15T01:01:20.464Z,8.01
2018-04-15T01:03:46.184Z,8.02
2018-04-15T01:06:11.934Z,8.03
2018-04-15T01:08:37.673Z,8.03
2018-04-15T01:11:03.397Z,7.99
2018-04-15T01:13:29.162Z,7.99
2018-04-15T01:15:55.248Z,7.97
2018-04-15T01:18:20.991Z,7.96
2018-04-15T01:20:46.719Z,7.95
2018-04-15T01:23:12.476Z,7.97
2018-04-15T01:25:38.208Z,7.98
2018-04-15T01:28:04.364Z,7.97
2018-04-15T01:30:30.100Z,7.98
2018-04-15T01:32:55.836Z,7.95
2018-04-15T01:35:21.560Z,7.98
2018-04-15T01:37:47.296Z,7.99
2018-04-15T01:40:13.099Z,8.00
2018-04-15T01:42:38.836Z,8.01
2018-04-15T01:45:04.564Z,8.00
2018-04-15T01:47:30.303Z,8.01
2018-04-15T01:49:56.029Z,8.00
2018-04-15T01:52:21.759Z,8.00
2018-04-15T01:54:47.486Z,7.99
2018-04-15T01:57:13.241Z,8.00
2018-04-15T01:59:38.976Z,8.00
2018-04-15T02:02:04.716Z,8.01
2018-04-15T02:04:30.435Z,8.02
2018-04-15T02:06:57.503Z,8.03
2018-04-15T02:09:23.240Z,8.04
2018-04-15T02:11:48.970Z,8.03
2018-04-15T02:14:14.708Z,8.02
2018-04-15T02:16:40.432Z,8.03
2018-04-15T02:19:06.177Z,8.05
2018-04-15T02:21:32.283Z,8.05
2018-04-15T02:23:58.304Z,8.05
2018-04-15T02:26:24.057Z,8.07
2018-04-15T02:28:49.795Z,8.06
2018-04-15T02:31:15.531Z,8.11
2018-04-15T02:33:41.277Z,8.05
2018-04-15T02:36:07.004Z,8.02
2018-04-15T02:38:32.737Z,8.01
2018-04-15T02:40:58.481Z,8.01
2018-04-15T02:43:24.524Z,8.02
2018-04-15T02:45:50.419Z,8.01
2018-04-15T02:48:16.428Z,8.01
2018-04-15T02:50:42.350Z,8.04
2018-04-15T02:53:08.084Z,8.06
2018-04-15T02:55:33.801Z,8.03
2018-04-15T02:57:59.530Z,8.05
2018-04-15T03:00:25.272Z,8.06
2018-04-15T03:02:51.019Z,8.06
2018-04-15T03:05:16.748Z,8.07
2018-04-15T03:07:42.477Z,8.06
2018-04-15T03:10:08.198Z,8.07
2018-04-15T03:12:33.933Z,8.06
2018-04-15T03:14:59.668Z,8.07
2018-04-15T03:17:25.387Z,8.08
2018-04-15T03:19:51.120Z,8.10
2018-04-15T03:22:16.852Z,8.07
2018-04-15T03:24:42.584Z,8.06
2018-04-15T03:27:08.301Z,8.07
2018-04-15T03:29:34.041Z,8.09
2018-04-15T03:31:59.767Z,8.05
2018-04-15T03:34:25.496Z,8.06
2018-04-15T03:36:51.218Z,8.06
2018-04-15T03:39:16.965Z,8.10
2018-04-15T03:41:42.700Z,8.06
2018-04-15T03:44:08.440Z,8.05
2018-04-15T03:46:34.167Z,8.10
2018-04-15T03:48:59.911Z,8.09
2018-04-15T03:51:25.628Z,8.08
2018-04-15T03:53:51.348Z,8.07
2018-04-15T03:56:17.060Z,8.06
2018-04-15T03:58:42.791Z,8.04
2018-04-15T04:01:08.503Z,8.06
2018-04-15T04:03:34.228Z,8.03
2018-04-15T04:05:59.932Z,7.99
2018-04-15T04:08:25.655Z,8.00
2018-04-15T04:10:51.372Z,8.03
2018-04-15T04:13:17.099Z,7.99
2018-04-15T04:15:42.807Z,7.97
2018-04-15T04:18:21.032Z,8.02
2018-04-15T04:20:59.329Z,8.04
2018-04-15T04:23:37.532Z,8.01
2018-04-15T04:26:03.252Z,8.01
2018-04-15T04:28:28.967Z,8.05
2018-04-15T04:30:54.685Z,8.09
2018-04-15T04:33:20.405Z,8.04
2018-04-15T04:35:46.124Z,8.07
2018-04-15T04:38:11.836Z,8.06
2018-04-15T04:40:37.569Z,8.08
2018-04-15T04:43:03.280Z,8.10
2018-04-15T04:45:29.014Z,8.11
2018-04-15T04:47:54.735Z,8.12
2018-04-15T04:50:20.460Z,8.12
2018-04-15T04:52:46.179Z,8.09
2018-04-15T04:55:11.903Z,8.11
2018-04-15T04:57:37.620Z,8.12
2018-04-15T05:00:03.347Z,8.14
2018-04-15T05:02:29.064Z,8.14
2018-04-15T05:04:54.797Z,8.17
2018-04-15T05:07:20.536Z,8.17
2018-04-15T05:09:46.264Z,8.18
2018-04-15T05:12:11.978Z,8.13
2018-04-15T05:14:37.707Z,8.12
2018-04-15T05:17:03.453Z,8.08
2018-04-15T05:19:29.155Z,8.04
2018-04-15T05:21:54.871Z,8.01
2018-04-15T05:24:20.657Z,7.91
2018-04-15T05:26:46.336Z,7.88
2018-04-15T05:29:12.064Z,7.95
2018-04-15T05:31:37.784Z,7.88
2018-04-15T05:34:03.517Z,7.90
2018-04-15T05:36:29.248Z,7.96
2018-04-15T05:38:54.970Z,7.99
2018-04-15T05:41:20.695Z,8.01
2018-04-15T05:43:46.412Z,7.98
2018-04-15T05:46:12.140Z,7.93
2018-04-15T05:48:37.876Z,7.93
2018-04-15T05:51:03.607Z,7.98
2018-04-15T05:53:29.317Z,8.01
2018-04-15T05:55:55.056Z,8.05
2018-04-15T05:58:20.784Z,8.10
2018-04-15T06:00:46.508Z,8.11
2018-04-15T06:03:12.220Z,8.12
2018-04-15T06:05:37.956Z,8.17
2018-04-15T06:08:03.664Z,8.21
2018-04-15T06:10:29.391Z,8.28
2018-04-15T06:12:55.103Z,8.41
2018-04-15T06:15:20.828Z,8.43
2018-04-15T06:17:46.542Z,8.39
2018-04-15T06:20:12.270Z,8.49
2018-04-15T06:22:37.981Z,8.49
2018-04-15T06:25:03.702Z,8.62
2018-04-15T06:27:29.411Z,8.64
2018-04-15T06:29:55.127Z,8.71
2018-04-15T06:32:20.843Z,8.74
2018-04-15T06:34:46.585Z,8.81
2018-04-15T06:37:12.300Z,8.87
2018-04-15T06:39:38.030Z,9.08
2018-04-15T06:42:03.739Z,9.07
2018-04-15T06:44:29.454Z,9.10
2018-04-15T06:46:55.185Z,9.11
2018-04-15T06:49:20.964Z,9.15
2018-04-15T06:51:46.648Z,9.22
2018-04-15T06:54:12.360Z,9.24
2018-04-15T06:56:38.095Z,9.39
2018-04-15T06:59:03.815Z,9.42
2018-04-15T07:01:29.562Z,9.26
2018-04-15T07:03:55.285Z,9.43
2018-04-15T07:06:21.011Z,9.47
2018-04-15T07:08:46.754Z,9.36
2018-04-15T07:11:12.487Z,9.40
2018-04-15T07:13:38.204Z,9.53
2018-04-15T07:16:03.943Z,9.58
2018-04-15T07:18:29.674Z,9.64
2018-04-15T07:20:55.410Z,9.69
2018-04-15T07:23:21.132Z,9.91
2018-04-15T07:25:46.869Z,9.84
2018-04-15T07:28:12.583Z,9.86
2018-04-15T07:30:38.322Z,10.10
2018-04-15T07:33:04.054Z,10.10
2018-04-15T07:35:29.790Z,10.12
2018-04-15T07:37:55.508Z,10.15
2018-04-15T07:40:21.239Z,10.12
2018-04-15T07:42:46.969Z,10.03
2018-04-15T07:45:12.704Z,10.08
2018-04-15T07:47:38.427Z,10.12
2018-04-15T07:50:04.148Z,10.05
2018-04-15T07:52:29.872Z,10.10
2018-04-15T07:54:55.593Z,10.25
2018-04-15T07:57:21.332Z,10.11
2018-04-15T07:59:47.048Z,10.19
2018-04-15T08:02:12.771Z,10.22
2018-04-15T08:04:38.491Z,10.11
2018-04-15T08:07:04.224Z,10.28
2018-04-15T08:09:29.932Z,10.32
2018-04-15T08:11:55.661Z,10.15
2018-04-15T08:14:21.388Z,10.16
2018-04-15T08:16:47.136Z,10.27
2018-04-15T08:19:12.847Z,10.36
2018-04-15T08:21:38.599Z,10.49
2018-04-15T08:24:04.328Z,10.34
2018-04-15T08:26:30.048Z,10.25
2018-04-15T08:28:55.748Z,10.53
2018-04-15T08:31:21.490Z,10.67
2018-04-15T08:33:47.200Z,10.58
2018-04-15T08:36:12.924Z,10.54
2018-04-15T08:38:38.651Z,10.47
2018-04-15T08:41:04.377Z,10.67
2018-04-15T08:43:30.280Z,10.60
2018-04-15T08:45:56.016Z,10.55
2018-04-15T08:48:21.736Z,10.64
2018-04-15T08:50:47.469Z,10.49
2018-04-15T08:53:13.185Z,10.40
2018-04-15T08:55:38.911Z,10.49
2018-04-15T08:58:04.641Z,10.46
2018-04-15T09:00:30.351Z,10.56
2018-04-15T09:02:56.085Z,10.50
2018-04-15T09:05:21.807Z,10.40
2018-04-15T09:07:47.552Z,10.47
2018-04-15T09:10:13.275Z,10.55
2018-04-15T09:12:39.006Z,10.70
2018-04-15T09:15:04.728Z,10.65
2018-04-15T09:17:30.452Z,10.50
2018-04-15T09:19:56.167Z,10.44
2018-04-15T09:22:21.896Z,10.28
2018-04-15T09:24:47.612Z,10.26
2018-04-15T09:27:13.344Z,10.30
2018-04-15T09:29:39.122Z,10.21
2018-04-15T09:32:04.800Z,10.15
2018-04-15T09:34:30.524Z,10.28
2018-04-15T09:36:56.256Z,10.29
2018-04-15T09:39:21.970Z,10.23
2018-04-15T09:41:47.696Z,10.21
2018-04-15T09:44:13.424Z,10.31
2018-04-15T09:46:39.173Z,10.40
2018-04-15T09:49:04.888Z,10.34
2018-04-15T09:51:30.616Z,10.21
2018-04-15T09:53:56.333Z,10.22
2018-04-15T09:56:22.065Z,10.16
2018-04-15T09:58:47.769Z,10.08
2018-04-15T10:01:16.443Z,9.97
2018-04-15T10:03:42.172Z,9.97
2018-04-15T10:06:07.879Z,9.88
2018-04-15T10:08:33.600Z,9.89
2018-04-15T10:10:59.317Z,9.95
2018-04-15T10:13:25.043Z,10.01
2018-04-15T10:15:50.757Z,9.89
2018-04-15T10:18:16.483Z,10.05
2018-04-15T10:20:42.201Z,9.99
2018-04-15T10:23:07.924Z,10.11
2018-04-15T10:25:33.636Z,10.27
2018-04-15T10:27:59.363Z,10.07
2018-04-15T10:30:25.083Z,10.02
2018-04-15T10:32:50.804Z,10.06
2018-04-15T10:35:16.508Z,10.02
2018-04-15T10:37:42.233Z,9.91
2018-04-15T10:40:07.941Z,10.04
2018-04-15T10:42:33.669Z,10.14
2018-04-15T10:44:59.379Z,10.06
2018-04-15T10:47:25.124Z,10.06
2018-04-15T10:49:50.848Z,9.96
2018-04-15T10:52:16.578Z,10.10
2018-04-15T10:54:42.320Z,10.07
2018-04-15T10:57:08.041Z,9.92
2018-04-15T10:59:33.760Z,9.98
2018-04-15T11:01:59.491Z,10.00
2018-04-15T11:04:25.199Z,10.00
2018-04-15T11:06:50.912Z,10.14
2018-04-15T11:09:16.641Z,10.17
2018-04-15T11:11:42.365Z,10.17
2018-04-15T11:14:08.098Z,10.27
2018-04-15T11:16:33.812Z,10.28
2018-04-15T11:18:59.547Z,10.19
2018-04-15T11:21:25.277Z,10.04
2018-04-15T11:23:51.012Z,10.20
2018-04-15T11:26:16.732Z,10.15
2018-04-15T11:28:42.459Z,10.12
2018-04-15T11:31:08.181Z,10.23
2018-04-15T11:33:33.920Z,10.24
2018-04-15T11:35:59.636Z,10.26
2018-04-15T11:38:25.389Z,10.42
2018-04-15T11:40:51.106Z,10.27
2018-04-15T11:43:16.845Z,10.24
2018-04-15T11:45:42.564Z,10.12
2018-04-15T11:48:08.288Z,10.15
2018-04-15T11:50:33.996Z,10.26
2018-04-15T11:52:59.720Z,10.43
2018-04-15T11:55:25.429Z,10.48
2018-04-15T11:57:51.156Z,10.57
2018-04-15T12:00:16.871Z,10.58
2018-04-15T12:02:42.600Z,10.60
2018-04-15T12:05:08.377Z,10.62
2018-04-15T12:07:34.124Z,10.60
2018-04-15T12:09:59.835Z,10.49
2018-04-15T12:12:25.837Z,10.50
2018-04-15T12:14:51.655Z,10.42
2018-04-15T12:17:17.395Z,10.54
2018-04-15T12:19:43.128Z,10.48
2018-04-15T12:22:08.834Z,10.59
2018-04-15T12:24:34.564Z,10.51
2018-04-15T12:27:00.273Z,10.55
2018-04-15T12:29:26.021Z,10.57
2018-04-15T12:31:51.753Z,10.60
2018-04-15T12:34:17.479Z,10.67
2018-04-15T12:36:43.183Z,10.88
2018-04-15T12:39:08.920Z,10.81
2018-04-15T12:41:34.732Z,10.77
2018-04-15T12:44:00.584Z,10.90
2018-04-15T12:46:26.667Z,10.90
2018-04-15T12:48:52.512Z,10.77
2018-04-15T12:51:18.240Z,10.73
2018-04-15T12:53:44.049Z,10.76
2018-04-15T12:56:09.791Z,10.59
2018-04-15T12:58:35.523Z,10.56
2018-04-15T13:01:01.245Z,10.51
2018-04-15T13:03:27.009Z,10.43
2018-04-15T13:05:52.747Z,10.50
2018-04-15T13:08:18.485Z,10.56
2018-04-15T13:10:44.213Z,10.60
2018-04-15T13:13:09.949Z,10.63
2018-04-15T13:15:35.745Z,10.54
2018-04-15T13:18:01.499Z,10.58
2018-04-15T13:20:28.135Z,10.59
2018-04-15T13:22:53.860Z,10.55
2018-04-15T13:25:19.600Z,10.51
2018-04-15T13:27:45.324Z,10.55
2018-04-15T13:30:11.076Z,10.60
2018-04-15T13:32:36.808Z,10.55
2018-04-15T13:35:02.561Z,10.63
2018-04-15T13:37:28.296Z,10.66
2018-04-15T13:39:54.265Z,10.72
2018-04-15T13:42:20.359Z,10.77
2018-04-15T13:44:46.348Z,10.79
2018-04-15T13:47:12.112Z,10.80
2018-04-15T13:49:37.877Z,10.68
2018-04-15T13:52:03.592Z,10.73
2018-04-15T13:54:29.325Z,10.77
2018-04-15T13:56:55.039Z,10.76
2018-04-15T13:59:20.780Z,10.77
2018-04-15T14:01:46.508Z,10.72
2018-04-15T14:04:12.258Z,10.87
2018-04-15T14:06:37.990Z,10.84
2018-04-15T14:09:03.739Z,11.09
2018-04-15T14:11:29.484Z,11.24
2018-04-15T14:13:55.216Z,11.20
2018-04-15T14:16:20.936Z,11.15
2018-04-15T14:18:46.675Z,11.49
2018-04-15T14:21:12.440Z,11.37
2018-04-15T14:23:38.164Z,11.23
2018-04-15T14:26:03.908Z,11.32
2018-04-15T14:28:29.631Z,11.13
2018-04-15T14:30:55.379Z,11.15
2018-04-15T14:33:21.112Z,11.09
2018-04-15T14:35:46.854Z,11.26
2018-04-15T14:38:12.600Z,11.05
2018-04-15T14:40:38.352Z,10.99
2018-04-15T14:43:04.089Z,11.13
2018-04-15T14:45:29.815Z,11.40
2018-04-15T14:47:55.561Z,11.21
2018-04-15T14:50:21.313Z,11.42
2018-04-15T14:52:47.066Z,11.43
2018-04-15T14:55:12.817Z,11.46
2018-04-15T14:57:38.560Z,11.24
2018-04-15T15:00:04.302Z,11.46
2018-04-15T15:02:30.025Z,11.39
2018-04-15T15:04:55.789Z,11.39
2018-04-15T15:07:21.520Z,11.35
2018-04-15T15:09:47.272Z,11.36
2018-04-15T15:12:13.028Z,11.54
2018-04-15T15:14:38.762Z,11.54
2018-04-15T15:17:04.483Z,11.78
2018-04-15T15:19:30.288Z,11.52
2018-04-15T15:21:55.968Z,11.55
2018-04-15T15:24:21.707Z,11.60
2018-04-15T15:26:47.419Z,11.65
2018-04-15T15:29:13.172Z,11.55
2018-04-15T15:31:38.907Z,11.44
2018-04-15T15:34:04.628Z,11.24
2018-04-15T15:36:30.388Z,11.12
2018-04-15T15:38:56.121Z,11.17
2018-04-15T15:41:21.874Z,11.21
2018-04-15T15:43:47.614Z,11.20
2018-04-15T15:46:13.357Z,11.16
2018-04-15T15:48:39.129Z,11.02
2018-04-15T15:51:04.868Z,11.02
2018-04-15T15:53:30.604Z,10.94
2018-04-15T15:55:56.345Z,10.94
2018-04-15T15:58:22.072Z,10.99
2018-04-15T16:00:47.817Z,10.86
2018-04-15T16:03:13.560Z,10.86
2018-04-15T16:05:39.297Z,10.87
2018-04-15T16:08:05.065Z,10.98
2018-04-15T16:10:30.807Z,10.82
2018-04-15T16:12:56.552Z,10.80
2018-04-15T16:15:22.300Z,10.85
2018-04-15T16:17:48.028Z,10.90
2018-04-15T16:20:13.812Z,10.67
2018-04-15T16:22:39.513Z,10.65
2018-04-15T16:25:05.244Z,10.62
2018-04-15T16:27:30.984Z,10.71
2018-04-15T16:29:56.729Z,10.77
2018-04-15T16:32:22.472Z,10.78
2018-04-15T16:34:48.220Z,10.68
2018-04-15T16:37:13.953Z,10.68
2018-04-15T16:39:39.684Z,10.68
2018-04-15T16:42:05.428Z,10.79
2018-04-15T16:44:31.177Z,10.54
2018-04-15T16:46:56.929Z,10.42
2018-04-15T16:49:22.692Z,10.40
2018-04-15T16:51:48.427Z,10.39
2018-04-15T16:54:14.152Z,10.46
2018-04-15T16:56:39.897Z,10.44
2018-04-15T16:59:05.650Z,10.32
2018-04-15T17:01:31.376Z,10.30
2018-04-15T17:03:57.107Z,10.28
2018-04-15T17:06:22.845Z,10.28
2018-04-15T17:08:48.586Z,10.25
2018-04-15T17:11:14.346Z,10.28
2018-04-15T17:13:40.050Z,10.24
2018-04-15T17:16:05.863Z,10.29
2018-04-15T17:18:31.544Z,10.29
2018-04-15T17:20:57.336Z,10.31
2018-04-15T17:23:23.077Z,10.29
2018-04-15T17:25:48.813Z,10.21
2018-04-15T17:28:14.549Z,10.25
2018-04-15T17:30:40.291Z,10.24
2018-04-15T17:33:06.225Z,10.30
2018-04-15T17:35:32.754Z,10.25
2018-04-15T17:37:58.492Z,10.17
2018-04-15T17:40:24.249Z,10.16
2018-04-15T17:42:49.988Z,10.17
2018-04-15T17:45:15.716Z,10.14
2018-04-15T17:47:41.459Z,10.15
2018-04-15T17:50:07.213Z,10.17
2018-04-15T17:52:32.952Z,10.18
2018-04-15T17:54:58.677Z,10.16
2018-04-15T17:57:24.426Z,10.21
2018-04-15T17:59:50.160Z,10.14
2018-04-15T18:02:15.901Z,10.16
2018-04-15T18:04:41.633Z,10.20
2018-04-15T18:07:07.463Z,10.14
2018-04-15T18:09:33.230Z,10.17
2018-04-15T18:11:59.173Z,10.13
2018-04-15T18:14:24.981Z,10.17
2018-04-15T18:16:50.746Z,10.15
2018-04-15T18:19:16.480Z,10.15
2018-04-15T18:21:42.395Z,10.13
2018-04-15T18:24:08.268Z,10.08
2018-04-15T18:26:34.030Z,10.05
2018-04-15T18:28:59.850Z,10.05
2018-04-15T18:31:25.879Z,10.05
2018-04-15T18:33:52.352Z,10.08
2018-04-15T18:36:18.302Z,10.07
2018-04-15T18:38:44.033Z,10.14
2018-04-15T18:41:09.773Z,10.09
2018-04-15T18:43:35.501Z,10.05
2018-04-15T18:46:01.515Z,10.01
2018-04-15T18:48:27.260Z,9.99
2018-04-15T18:50:53.155Z,9.98
2018-04-15T18:53:19.074Z,10.02
2018-04-15T18:55:44.948Z,10.02
2018-04-15T18:58:10.700Z,9.99
2018-04-15T19:00:36.554Z,9.97
2018-04-15T19:03:02.339Z,9.93
2018-04-15T19:05:28.075Z,9.93
2018-04-15T19:07:53.830Z,10.01
2018-04-15T19:10:19.560Z,10.02
2018-04-15T19:12:45.297Z,10.10
2018-04-15T19:15:11.029Z,9.99
2018-04-15T19:17:36.771Z,10.02
2018-04-15T19:20:02.514Z,10.05
2018-04-15T19:22:28.256Z,9.98
2018-04-15T19:24:54.037Z,9.95
2018-04-15T19:27:19.770Z,9.96
2018-04-15T19:29:45.529Z,9.95
2018-04-15T19:32:11.258Z,9.98
2018-04-15T19:34:36.987Z,10.00
2018-04-15T19:37:02.722Z,9.97
2018-04-15T19:39:28.448Z,9.95
2018-04-15T19:41:54.226Z,10.00
2018-04-15T19:44:19.936Z,9.97
2018-04-15T19:46:45.681Z,9.99
2018-04-15T19:49:11.416Z,9.95
2018-04-15T19:51:37.171Z,9.98
2018-04-15T19:54:02.885Z,9.98
2018-04-15T19:56:28.654Z,10.00
2018-04-15T19:58:54.371Z,9.98
2018-04-15T20:01:20.095Z,9.98
2018-04-15T20:03:45.833Z,9.99
2018-04-15T20:06:11.588Z,10.04
2018-04-15T20:08:37.321Z,10.00
2018-04-15T20:11:03.045Z,10.00
2018-04-15T20:13:28.777Z,10.00
2018-04-15T20:15:54.480Z,10.03
2018-04-15T20:18:20.227Z,10.04
2018-04-15T20:20:45.990Z,10.05
2018-04-15T20:23:11.720Z,10.05
2018-04-15T20:25:37.448Z,10.08
2018-04-15T20:28:03.183Z,10.09
2018-04-15T20:30:28.904Z,10.11
2018-04-15T20:32:54.649Z,10.11
2018-04-15T20:35:20.368Z,10.14
2018-04-15T20:37:46.118Z,10.14
2018-04-15T20:40:11.856Z,10.20
2018-04-15T20:42:37.590Z,10.24
2018-04-15T20:45:03.328Z,10.28
2018-04-15T20:47:29.119Z,10.25
2018-04-15T20:49:54.852Z,10.25
2018-04-15T20:52:20.599Z,10.31
2018-04-15T20:54:46.324Z,10.30
2018-04-15T20:57:12.053Z,10.32
2018-04-15T20:59:37.803Z,10.32
2018-04-15T21:02:03.539Z,10.33
2018-04-15T21:04:29.280Z,10.34
2018-04-15T21:06:55.010Z,10.33
2018-04-15T21:09:20.749Z,10.28
2018-04-15T21:11:46.471Z,10.34
2018-04-15T21:14:12.197Z,10.32
2018-04-15T21:16:37.919Z,10.32
2018-04-15T21:19:03.668Z,10.34
2018-04-15T21:21:29.399Z,10.33
2018-04-15T21:23:55.226Z,10.26
2018-04-15T21:26:20.965Z,10.25
2018-04-15T21:28:46.705Z,10.23
2018-04-15T21:31:12.438Z,10.19
2018-04-15T21:33:38.164Z,10.15
2018-04-15T21:36:03.884Z,10.10
2018-04-15T21:38:29.671Z,10.05
2018-04-15T21:40:55.449Z,10.06
2018-04-15T21:43:21.177Z,10.01
2018-04-15T21:45:46.907Z,9.98
2018-04-15T21:48:12.704Z,9.99
2018-04-15T21:50:38.436Z,10.08
2018-04-15T21:53:04.504Z,10.08
2018-04-15T21:55:30.240Z,10.01
2018-04-15T21:57:55.980Z,10.00
2018-04-15T22:00:21.724Z,9.98
2018-04-15T22:02:47.473Z,9.98
2018-04-15T22:05:13.213Z,9.95
2018-04-15T22:07:39.179Z,9.96
2018-04-15T22:10:05.036Z,10.03
2018-04-15T22:12:30.764Z,10.01
2018-04-15T22:14:56.500Z,10.02
2018-04-15T22:17:22.236Z,9.98
2018-04-15T22:19:47.977Z,9.98
2018-04-15T22:22:13.865Z,9.96
2018-04-15T22:24:39.600Z,9.96
2018-04-15T22:27:05.329Z,9.95
2018-04-15T22:29:31.147Z,9.94
2018-04-15T22:31:57.008Z,9.94
2018-04-15T22:34:22.780Z,9.86
2018-04-15T22:36:48.682Z,9.83
2018-04-15T22:39:14.418Z,9.78
2018-04-15T22:41:40.160Z,9.79
2018-04-15T22:44:05.891Z,9.66
2018-04-15T22:46:31.609Z,9.64
2018-04-15T22:48:57.357Z,9.67
2018-04-15T22:51:23.089Z,9.59
2018-04-15T22:53:48.840Z,9.59
2018-04-15T22:56:14.588Z,9.52
2018-04-15T22:58:46.211Z,9.54
2018-04-15T23:01:11.944Z,9.54
2018-04-15T23:03:37.670Z,9.53
2018-04-15T23:06:03.396Z,9.53
2018-04-15T23:08:29.130Z,9.48
2018-04-15T23:10:54.863Z,9.47
2018-04-15T23:13:20.609Z,9.42
2018-04-15T23:15:46.353Z,9.39
2018-04-15T23:18:12.085Z,9.34
2018-04-15T23:20:37.826Z,9.37
2018-04-15T23:23:03.563Z,9.39
2018-04-15T23:25:29.296Z,9.37
2018-04-15T23:27:55.020Z,9.34
2018-04-15T23:30:20.753Z,9.26
2018-04-15T23:32:46.473Z,9.26
2018-04-15T23:35:12.210Z,9.33
2018-04-15T23:37:37.920Z,9.29
2018-04-15T23:40:03.661Z,9.21
2018-04-15T23:42:29.399Z,9.24
2018-04-15T23:44:55.124Z,9.20
2018-04-15T23:47:20.845Z,9.20
2018-04-15T23:49:46.596Z,9.10
2018-04-15T23:52:12.329Z,9.11
2018-04-15T23:54:38.066Z,9.17
2018-04-15T23:57:03.814Z,9.14
2018-04-15T23:59:29.565Z,9.05
